Time;durP1;ratioP1;P1;durP2;ratioP2;P2;SDS_P1;SDS_P2;PMS_P1;PMS_P2;Temp;Humidity;BMP_temperature;BMP_pressure;BME280_temperature;BME280_humidity;BME280_pressure;Samples;Min_cycle;Max_cycle;Signal;HPM_P1;HPM_P2
2023/03/18 00:01:23;;;;;;;9.00;4.55;;;8.50;76.70;;;;;;5027563;28;20128;-79
2023/03/18 00:03:49;;;;;;;8.50;4.07;;;8.50;75.90;;;;;;5001548;28;20037;-79
2023/03/18 00:06:17;;;;;;;6.00;3.30;;;8.50;76.10;;;;;;5020206;28;20033;-81
2023/03/18 00:08:44;;;;;;;5.28;3.35;;;8.50;76.20;;;;;;5012154;28;20131;-79
2023/03/18 00:11:12;;;;;;;6.50;3.75;;;8.50;76.20;;;;;;4998415;28;20040;-78
2023/03/18 00:13:40;;;;;;;8.68;4.07;;;8.50;76.30;;;;;;4988836;28;20704;-80
2023/03/18 00:16:06;;;;;;;6.20;3.53;;;8.40;76.40;;;;;;5019757;28;20064;-79
2023/03/18 00:18:33;;;;;;;7.07;3.40;;;8.40;76.40;;;;;;4990053;28;20057;-80
2023/03/18 00:20:59;;;;;;;5.60;3.53;;;8.40;76.50;;;;;;5002751;28;20060;-81
2023/03/18 00:23:26;;;;;;;12.15;6.05;;;8.40;76.50;;;;;;5017408;28;20051;-78
2023/03/18 00:25:53;;;;;;;12.60;6.75;;;8.40;76.50;;;;;;5007407;28;20516;-79
2023/03/18 00:28:19;;;;;;;6.63;5.07;;;8.30;76.60;;;;;;5037212;28;20036;-79
2023/03/18 00:30:45;;;;;;;7.47;4.97;;;8.30;76.60;;;;;;5023869;28;20050;-79
2023/03/18 00:33:11;;;;;;;7.72;5.03;;;8.30;76.70;;;;;;5056013;28;20670;-81
2023/03/18 00:35:36;;;;;;;9.75;5.00;;;8.30;76.90;;;;;;5038198;28;20036;-79
2023/03/18 00:38:06;;;;;;;9.73;5.40;;;8.20;76.90;;;;;;5044629;28;20452;-78
2023/03/18 00:40:42;;;;;;;7.55;5.20;;;8.20;77.00;;;;;;5008342;28;20104;-81
2023/03/18 00:43:11;;;;;;;7.72;4.68;;;8.20;77.00;;;;;;5036858;28;20050;-79
2023/03/18 00:45:37;;;;;;;7.30;4.07;;;8.20;77.10;;;;;;5037949;28;20043;-80
2023/03/18 00:48:03;;;;;;;7.97;4.28;;;8.10;77.10;;;;;;5021560;28;20041;-80
2023/03/18 00:50:29;;;;;;;5.47;3.70;;;8.10;77.10;;;;;;4996715;28;20102;-78
2023/03/18 00:52:55;;;;;;;7.97;3.78;;;8.10;77.20;;;;;;5007002;28;20102;-79
2023/03/18 00:55:20;;;;;;;5.10;3.60;;;8.10;77.30;;;;;;5019915;28;20555;-80
2023/03/18 00:57:46;;;;;;;9.75;4.20;;;8.10;77.30;;;;;;5011439;28;20067;-78
2023/03/18 01:00:15;;;;;;;5.88;3.58;;;8.00;77.30;;;;;;5031307;28;20052;-80
2023/03/18 01:02:41;;;;;;;6.65;3.92;;;8.00;77.40;;;;;;5006505;28;20037;-79
2023/03/18 01:05:07;;;;;;;7.57;3.95;;;7.90;77.30;;;;;;5001885;28;20048;-78
2023/03/18 01:07:32;;;;;;;6.40;3.70;;;7.90;77.40;;;;;;5027133;28;20067;-78
2023/03/18 01:09:58;;;;;;;5.40;3.75;;;7.90;77.50;;;;;;5004674;28;20033;-81
2023/03/18 01:12:24;;;;;;;6.60;3.45;;;7.90;77.60;;;;;;4991474;28;21024;-80
2023/03/18 01:14:50;;;;;;;9.15;4.40;;;7.90;77.70;;;;;;5001425;28;20439;-79
2023/03/18 01:17:15;;;;;;;4.80;3.42;;;7.80;77.70;;;;;;5017458;28;20132;-79
2023/03/18 01:19:41;;;;;;;4.82;2.97;;;7.80;77.70;;;;;;5007488;28;20098;-80
2023/03/18 01:22:06;;;;;;;6.90;3.55;;;7.80;77.70;;;;;;5038131;28;20041;-78
2023/03/18 01:24:32;;;;;;;6.90;3.55;;;7.80;77.80;;;;;;5006777;28;20052;-78
2023/03/18 01:26:58;;;;;;;7.05;3.20;;;7.80;77.90;;;;;;5024214;28;20052;-79
2023/03/18 01:29:24;;;;;;;4.68;3.08;;;7.70;77.90;;;;;;5031640;28;20025;-78
2023/03/18 01:31:50;;;;;;;3.53;2.67;;;7.70;78.80;;;;;;5019964;28;20029;-79
2023/03/18 01:34:15;;;;;;;6.63;3.67;;;7.70;78.10;;;;;;5021593;28;20676;-79
2023/03/18 01:36:41;;;;;;;11.35;3.75;;;7.70;78.30;;;;;;4999631;28;20045;-80
2023/03/18 01:39:07;;;;;;;5.00;3.30;;;7.70;78.40;;;;;;5015594;28;20029;-79
2023/03/18 01:41:33;;;;;;;6.65;3.20;;;7.70;78.40;;;;;;5006325;28;20029;-78
2023/03/18 01:44:00;;;;;;;6.78;3.15;;;7.70;78.50;;;;;;5015393;28;20025;-79
2023/03/18 01:46:48;;;;;;;6.28;2.83;;;7.70;78.60;;;;;;5020451;28;20255;-79
2023/03/18 01:49:22;;;;;;;4.80;2.83;;;7.70;78.90;;;;;;5035538;28;20040;-78
2023/03/18 01:52:10;;;;;;;6.10;3.53;;;7.70;78.80;;;;;;5023180;28;20033;-79
2023/03/18 01:54:39;;;;;;;4.30;2.55;;;7.70;79.00;;;;;;5015451;28;20038;-78
2023/03/18 01:57:04;;;;;;;5.65;2.78;;;7.60;78.70;;;;;;5039821;28;20037;-79
2023/03/18 01:59:32;;;;;;;4.88;2.72;;;7.60;78.70;;;;;;5008893;28;20037;-78
2023/03/18 02:02:09;;;;;;;5.05;2.92;;;7.60;78.80;;;;;;4997109;28;20120;-79
2023/03/18 02:04:43;;;;;;;3.67;2.50;;;7.70;79.20;;;;;;5003964;28;20045;-79
2023/03/18 02:07:30;;;;;;;4.13;2.72;;;7.70;79.10;;;;;;5012361;28;20041;-79
2023/03/18 02:10:04;;;;;;;3.90;2.38;;;7.70;79.30;;;;;;5021516;28;20033;-79
2023/03/18 02:12:32;;;;;;;5.00;2.65;;;7.70;79.00;;;;;;5019327;28;20063;-78
2023/03/18 02:14:58;;;;;;;3.92;2.42;;;7.70;79.10;;;;;;5038379;28;20040;-80
2023/03/18 02:17:29;;;;;;;3.50;2.67;;;7.70;79.20;;;;;;5013504;28;20042;-80
2023/03/18 02:20:12;;;;;;;3.70;2.83;;;7.70;79.30;;;;;;5011627;28;20068;-81
2023/03/18 02:22:43;;;;;;;5.28;2.22;;;7.70;79.50;;;;;;5032392;28;20041;-80
2023/03/18 02:25:36;;;;;;;5.43;2.55;;;7.70;79.40;;;;;;5043272;28;20109;-80
2023/03/18 02:28:07;;;;;;;6.50;2.58;;;7.70;79.70;;;;;;5042134;28;20060;-79
2023/03/18 02:30:39;;;;;;;2.88;2.28;;;7.70;79.40;;;;;;5045588;28;20086;-80
2023/03/18 02:33:05;;;;;;;4.47;2.70;;;7.70;79.40;;;;;;5025254;28;20048;-80
2023/03/18 02:35:31;;;;;;;6.40;2.78;;;7.70;79.50;;;;;;5021919;28;20033;-78
2023/03/18 02:37:56;;;;;;;3.10;2.28;;;7.70;79.60;;;;;;5022298;28;20045;-78
2023/03/18 02:40:32;;;;;;;3.28;2.33;;;7.70;79.60;;;;;;5000524;28;20037;-78
2023/03/18 02:43:17;;;;;;;3.40;2.47;;;7.70;79.80;;;;;;5022768;28;20677;-78
2023/03/18 02:46:13;;;;;;;4.55;2.53;;;7.80;80.00;;;;;;5007886;28;20061;-79
2023/03/18 02:48:42;;;;;;;4.22;2.78;;;7.80;80.00;;;;;;5053799;28;20045;-79
2023/03/18 02:51:07;;;;;;;4.80;2.88;;;7.70;79.70;;;;;;5006101;28;20041;-79
2023/03/18 02:53:33;;;;;;;6.82;2.78;;;7.70;79.80;;;;;;5013511;28;20076;-79
2023/03/18 02:55:59;;;;;;;6.65;3.15;;;7.70;79.90;;;;;;5024186;28;20029;-78
2023/03/18 02:58:25;;;;;;;7.60;3.47;;;7.80;80.00;;;;;;5023859;28;20060;-78
2023/03/18 03:00:50;;;;;;;6.95;3.40;;;7.70;80.00;;;;;;5031184;28;20047;-78
2023/03/18 03:03:16;;;;;;;6.65;3.38;;;7.80;80.10;;;;;;5046623;28;20048;-80
2023/03/18 03:05:42;;;;;;;5.72;3.60;;;7.70;80.20;;;;;;5023697;28;20044;-79
2023/03/18 03:08:07;;;;;;;7.30;4.15;;;7.70;80.30;;;;;;5028171;28;20041;-80
2023/03/18 03:10:33;;;;;;;4.93;3.20;;;7.70;80.30;;;;;;5030902;28;20123;-79
2023/03/18 03:12:59;;;;;;;7.53;3.50;;;7.70;80.30;;;;;;5015876;28;20808;-80
2023/03/18 03:15:25;;;;;;;8.60;3.80;;;7.70;80.30;;;;;;5009745;28;20060;-81
2023/03/18 03:17:51;;;;;;;5.80;3.40;;;7.70;80.30;;;;;;5004955;28;20496;-78
2023/03/18 03:20:17;;;;;;;5.03;3.38;;;7.70;80.40;;;;;;5024275;28;20037;-79
2023/03/18 03:22:42;;;;;;;5.30;2.92;;;7.70;80.50;;;;;;5025494;28;20039;-81
2023/03/18 03:25:09;;;;;;;7.07;3.55;;;7.70;80.50;;;;;;5020376;28;20033;-77
2023/03/18 03:27:36;;;;;;;6.80;3.83;;;7.70;80.50;;;;;;5038024;28;20615;-79
2023/03/18 03:30:03;;;;;;;4.72;3.47;;;7.70;80.60;;;;;;5026750;28;20036;-80
2023/03/18 03:32:29;;;;;;;5.75;3.85;;;7.70;80.70;;;;;;5024129;28;20045;-80
2023/03/18 03:34:55;;;;;;;10.63;3.97;;;7.70;80.70;;;;;;5020857;28;20454;-80
2023/03/18 03:37:20;;;;;;;5.18;3.88;;;7.70;80.70;;;;;;5022800;28;20049;-78
2023/03/18 03:39:47;;;;;;;7.28;4.35;;;7.70;80.70;;;;;;5040887;28;20025;-81
2023/03/18 03:42:13;;;;;;;8.25;4.35;;;7.70;80.80;;;;;;5030316;28;20120;-80
2023/03/18 03:44:39;;;;;;;6.28;4.05;;;7.70;80.90;;;;;;5018112;28;20116;-80
2023/03/18 03:47:05;;;;;;;7.20;4.10;;;7.70;80.90;;;;;;5006661;28;20087;-79
2023/03/18 03:49:31;;;;;;;8.23;4.00;;;7.70;81.00;;;;;;5038420;28;20041;-80
2023/03/18 03:51:56;;;;;;;6.82;4.00;;;7.70;81.10;;;;;;5012570;28;20037;-78
2023/03/18 03:54:22;;;;;;;8.63;3.80;;;7.70;81.20;;;;;;5032978;28;20679;-79
2023/03/18 03:56:47;;;;;;;7.38;3.80;;;7.70;81.20;;;;;;5017985;28;20063;-80
2023/03/18 03:59:13;;;;;;;5.88;3.47;;;7.70;81.20;;;;;;5030989;28;20260;-79
2023/03/18 04:01:40;;;;;;;8.75;4.13;;;7.70;81.30;;;;;;5045661;28;20461;-79
2023/03/18 04:04:05;;;;;;;6.20;3.83;;;7.70;81.30;;;;;;5040042;28;20036;-78
2023/03/18 04:06:31;;;;;;;5.07;3.25;;;7.70;81.30;;;;;;5018899;28;20041;-79
2023/03/18 04:08:56;;;;;;;6.00;3.67;;;7.70;81.30;;;;;;5034299;28;20100;-79
2023/03/18 04:11:22;;;;;;;5.93;3.90;;;7.60;81.30;;;;;;5040659;28;20097;-79
2023/03/18 04:13:48;;;;;;;7.15;3.72;;;7.60;81.30;;;;;;4991944;28;20431;-79
2023/03/18 04:16:15;;;;;;;8.43;4.10;;;7.60;81.50;;;;;;4998378;28;20045;-80
2023/03/18 04:18:41;;;;;;;5.00;3.30;;;7.60;81.50;;;;;;5011682;28;20039;-78
2023/03/18 04:21:07;;;;;;;7.35;4.03;;;7.70;81.60;;;;;;5023209;28;20782;-81
2023/03/18 04:23:32;;;;;;;7.70;3.95;;;7.60;81.50;;;;;;5033896;28;20114;-79
2023/03/18 04:25:58;;;;;;;4.38;3.13;;;7.70;81.70;;;;;;5023924;28;20654;-78
2023/03/18 04:28:24;;;;;;;6.50;3.13;;;7.60;81.70;;;;;;5002719;28;20042;-80
2023/03/18 04:30:49;;;;;;;4.72;3.50;;;7.70;81.70;;;;;;5020960;28;20037;-78
2023/03/18 04:33:15;;;;;;;6.55;3.95;;;7.70;81.70;;;;;;5017148;28;20038;-78
2023/03/18 04:35:43;;;;;;;6.18;4.50;;;7.70;81.70;;;;;;5037374;28;20127;-78
2023/03/18 04:38:09;;;;;;;6.93;4.18;;;7.60;81.70;;;;;;4998960;28;20049;-80
2023/03/18 04:40:34;;;;;;;4.40;3.25;;;7.70;81.90;;;;;;5038678;28;20040;-80
2023/03/18 04:43:00;;;;;;;6.22;4.05;;;7.70;81.90;;;;;;5030459;28;20407;-78
2023/03/18 04:45:26;;;;;;;4.70;3.65;;;7.60;81.90;;;;;;5021755;28;20848;-80
2023/03/18 04:47:51;;;;;;;6.15;3.10;;;7.60;81.90;;;;;;5032639;28;20693;-80
2023/03/18 04:50:17;;;;;;;5.20;3.42;;;7.70;82.00;;;;;;5037510;28;20033;-78
2023/03/18 04:52:43;;;;;;;7.70;3.70;;;7.70;82.00;;;;;;5008425;28;20094;-79
2023/03/18 04:55:09;;;;;;;5.95;3.38;;;7.70;82.00;;;;;;4997813;28;20995;-79
2023/03/18 04:57:37;;;;;;;6.40;3.45;;;7.70;82.00;;;;;;5031280;28;20109;-78
2023/03/18 05:00:07;;;;;;;6.00;3.45;;;7.70;82.00;;;;;;5000810;28;20033;-80
2023/03/18 05:02:32;;;;;;;4.82;3.80;;;7.70;82.10;;;;;;5015968;28;20065;-81
2023/03/18 05:04:59;;;;;;;6.53;4.30;;;7.70;82.10;;;;;;4999816;28;20083;-80
2023/03/18 05:07:25;;;;;;;8.02;4.35;;;7.70;82.00;;;;;;4981980;28;20063;-79
2023/03/18 05:09:51;;;;;;;6.65;4.40;;;7.70;82.10;;;;;;4983344;28;20532;-81
2023/03/18 05:12:16;;;;;;;5.50;3.45;;;7.70;82.20;;;;;;5004781;28;20109;-80
2023/03/18 05:14:42;;;;;;;4.95;3.47;;;7.70;82.30;;;;;;4991003;28;20027;-79
2023/03/18 05:17:14;;;;;;;5.22;3.42;;;7.70;82.30;;;;;;5022775;28;20037;-79
2023/03/18 05:19:46;;;;;;;8.68;4.38;;;7.70;82.30;;;;;;5019462;28;20033;-78
2023/03/18 05:22:12;;;;;;;7.93;4.25;;;7.70;82.10;;;;;;5037756;28;20036;-79
2023/03/18 05:24:38;;;;;;;6.28;3.83;;;7.70;82.20;;;;;;5009984;28;20036;-80
2023/03/18 05:27:04;;;;;;;5.45;3.72;;;7.70;82.20;;;;;;5010893;28;20156;-80
2023/03/18 05:29:29;;;;;;;8.60;4.82;;;7.70;82.20;;;;;;5007172;28;20518;-80
2023/03/18 05:31:55;;;;;;;6.97;4.72;;;7.70;82.30;;;;;;5033823;28;20694;-81
2023/03/18 05:34:20;;;;;;;7.78;5.35;;;7.70;82.30;;;;;;5016592;28;20034;-80
2023/03/18 05:36:47;;;;;;;7.85;4.88;;;7.70;82.40;;;;;;5016305;28;20045;-80
2023/03/18 05:39:12;;;;;;;5.82;4.50;;;7.70;82.50;;;;;;5007951;28;20040;-79
2023/03/18 05:41:38;;;;;;;10.35;5.35;;;7.70;82.60;;;;;;5007129;28;20510;-81
2023/03/18 05:44:04;;;;;;;7.25;4.75;;;7.70;82.60;;;;;;5019415;28;20629;-79
2023/03/18 05:46:30;;;;;;;8.13;4.75;;;7.70;82.70;;;;;;5005303;28;20048;-81
2023/03/18 05:48:56;;;;;;;7.40;5.10;;;7.70;82.80;;;;;;5007586;28;20045;-80
2023/03/18 05:51:21;;;;;;;4.80;4.13;;;7.70;82.90;;;;;;5024567;28;20036;-76
2023/03/18 05:53:47;;;;;;;8.20;4.63;;;7.70;82.90;;;;;;5006209;28;20036;-80
2023/03/18 05:56:13;;;;;;;8.30;4.72;;;7.70;82.80;;;;;;5038708;28;20093;-79
2023/03/18 05:58:39;;;;;;;15.70;5.03;;;7.70;82.70;;;;;;5027054;28;20034;-80
2023/03/18 06:01:06;;;;;;;7.80;5.53;;;7.80;82.80;;;;;;5009914;28;20047;-80
2023/03/18 06:03:33;;;;;;;7.82;5.00;;;7.80;82.80;;;;;;5032852;28;20053;-80
2023/03/18 06:05:59;;;;;;;8.70;5.30;;;7.80;82.80;;;;;;5023593;28;20038;-79
2023/03/18 06:08:25;;;;;;;7.78;5.40;;;7.80;82.80;;;;;;5013526;28;20055;-77
2023/03/18 06:10:50;;;;;;;8.73;5.38;;;7.80;83.00;;;;;;5022153;28;20123;-80
2023/03/18 06:13:16;;;;;;;8.20;5.43;;;7.80;83.10;;;;;;4989198;28;20120;-78
2023/03/18 06:15:41;;;;;;;6.88;5.43;;;7.80;83.00;;;;;;5009750;28;20029;-80
2023/03/18 06:18:07;;;;;;;8.77;4.90;;;7.80;83.20;;;;;;5063268;28;20036;-80
2023/03/18 06:20:33;;;;;;;6.03;4.07;;;7.80;83.20;;;;;;5026845;28;20037;-81
2023/03/18 06:22:58;;;;;;;6.38;4.20;;;7.80;83.10;;;;;;5039109;28;20025;-80
2023/03/18 06:25:25;;;;;;;5.22;4.00;;;7.80;82.90;;;;;;5029447;28;20038;-81
2023/03/18 06:27:51;;;;;;;9.10;4.57;;;7.80;82.80;;;;;;5006370;28;20037;-80
2023/03/18 06:30:17;;;;;;;6.63;3.92;;;7.90;82.80;;;;;;5024525;28;20048;-79
2023/03/18 06:32:42;;;;;;;7.38;4.78;;;7.90;82.80;;;;;;5026023;28;20041;-80
2023/03/18 06:35:09;;;;;;;7.28;5.35;;;7.90;82.80;;;;;;5005544;28;20404;-80
2023/03/18 06:37:35;;;;;;;11.15;6.45;;;7.90;82.90;;;;;;5006158;28;20045;-78
2023/03/18 06:40:00;;;;;;;10.25;6.03;;;7.90;83.00;;;;;;5009327;28;20057;-80
2023/03/18 06:42:26;;;;;;;9.95;5.78;;;7.90;83.10;;;;;;5027292;28;20037;-78
2023/03/18 06:44:52;;;;;;;9.52;6.60;;;7.90;83.10;;;;;;5015499;28;20049;-79
2023/03/18 06:47:18;;;;;;;12.77;7.10;;;8.00;83.30;;;;;;5026778;28;20546;-79
2023/03/18 06:49:43;;;;;;;4.47;4.05;;;7.90;83.30;;;;;;4988693;28;20030;-80
2023/03/18 06:52:09;;;;;;;6.47;5.40;;;8.00;83.30;;;;;;5004384;28;20500;-80
2023/03/18 06:54:34;;;;;;;10.02;6.18;;;8.00;83.20;;;;;;5005109;28;20092;-78
2023/03/18 06:57:00;;;;;;;10.45;6.10;;;8.00;83.10;;;;;;5021810;28;20052;-80
2023/03/18 06:59:26;;;;;;;7.70;5.22;;;8.10;83.20;;;;;;5003490;28;20497;-79
2023/03/18 07:01:51;;;;;;;9.18;5.70;;;8.00;83.20;;;;;;5014236;28;20038;-78
2023/03/18 07:04:17;;;;;;;8.63;4.78;;;8.10;83.30;;;;;;5014311;28;20034;-80
2023/03/18 07:06:42;;;;;;;8.20;4.90;;;8.10;83.30;;;;;;4988474;28;20045;-79
2023/03/18 07:09:10;;;;;;;8.55;5.40;;;8.10;83.30;;;;;;5020147;28;20083;-79
2023/03/18 07:11:35;;;;;;;11.45;6.30;;;8.10;83.20;;;;;;5020626;28;20053;-78
2023/03/18 07:14:01;;;;;;;9.93;6.00;;;8.10;83.20;;;;;;5019619;28;20800;-79
2023/03/18 07:16:26;;;;;;;17.58;6.72;;;8.10;83.30;;;;;;5017189;28;20073;-79
2023/03/18 07:18:52;;;;;;;10.48;6.18;;;8.20;83.40;;;;;;5001789;28;20042;-80
2023/03/18 07:21:18;;;;;;;9.77;5.18;;;8.20;83.40;;;;;;5017992;28;20342;-79
2023/03/18 07:23:43;;;;;;;8.07;5.63;;;8.20;83.40;;;;;;4986325;28;20031;-80
2023/03/18 07:26:09;;;;;;;8.02;5.20;;;8.20;83.30;;;;;;5016450;28;20049;-79
2023/03/18 07:28:35;;;;;;;9.32;6.28;;;8.30;83.20;;;;;;5018426;28;20049;-79
2023/03/18 07:31:00;;;;;;;11.00;7.43;;;8.30;83.20;;;;;;5021068;28;20038;-79
2023/03/18 07:33:26;;;;;;;10.57;6.88;;;8.30;83.10;;;;;;5018417;28;20095;-80
2023/03/18 07:35:51;;;;;;;13.65;7.72;;;8.40;83.10;;;;;;5009841;28;20045;-80
2023/03/18 07:38:17;;;;;;;12.23;7.15;;;8.40;83.10;;;;;;5012802;28;20033;-80
2023/03/18 07:40:43;;;;;;;10.57;6.80;;;8.40;83.20;;;;;;5053318;28;20037;-78
2023/03/18 07:43:08;;;;;;;12.00;7.13;;;8.50;83.30;;;;;;4996708;28;20045;-80
2023/03/18 07:45:34;;;;;;;13.77;7.18;;;8.60;83.30;;;;;;5034695;28;20047;-78
2023/03/18 07:47:59;;;;;;;10.48;6.20;;;8.70;83.40;;;;;;5019814;28;20047;-80
2023/03/18 07:50:26;;;;;;;9.77;6.05;;;8.70;83.30;;;;;;5034978;28;20668;-80
2023/03/18 07:52:52;;;;;;;12.77;6.40;;;8.80;83.20;;;;;;5023099;28;20082;-80
2023/03/18 07:55:18;;;;;;;12.85;7.65;;;8.90;83.20;;;;;;5036514;28;20045;-80
2023/03/18 07:57:44;;;;;;;10.20;5.82;;;9.00;83.10;;;;;;5013715;28;20029;-80
2023/03/18 08:00:11;;;;;;;10.02;6.32;;;9.10;83.00;;;;;;5005384;28;20121;-80
2023/03/18 08:02:36;;;;;;;10.68;6.53;;;9.10;82.80;;;;;;5001879;28;20052;-79
2023/03/18 08:05:02;;;;;;;10.13;6.28;;;9.20;82.70;;;;;;5037372;28;20056;-80
2023/03/18 08:07:28;;;;;;;15.52;5.95;;;9.30;83.50;;;;;;5022775;28;20095;-79
2023/03/18 08:09:54;;;;;;;15.77;6.80;;;9.30;82.60;;;;;;4997477;28;20028;-80
2023/03/18 08:12:19;;;;;;;10.25;5.72;;;9.40;82.60;;;;;;5016701;28;20096;-77
2023/03/18 08:14:45;;;;;;;8.52;5.82;;;9.50;82.60;;;;;;4997573;28;20488;-76
2023/03/18 08:17:11;;;;;;;10.68;6.25;;;9.60;82.50;;;;;;5024810;28;20033;-80
2023/03/18 08:19:36;;;;;;;14.68;5.72;;;9.70;82.40;;;;;;5005846;28;20064;-79
2023/03/18 08:22:02;;;;;;;9.02;5.40;;;9.80;82.30;;;;;;5008066;28;20087;-79
2023/03/18 08:24:27;;;;;;;8.70;5.28;;;9.90;82.10;;;;;;5013540;28;20041;-80
2023/03/18 08:26:53;;;;;;;9.10;5.45;;;10.00;81.90;;;;;;5004453;28;20547;-80
2023/03/18 08:29:18;;;;;;;10.07;4.75;;;10.10;81.80;;;;;;5014787;28;20209;-80
2023/03/18 08:31:44;;;;;;;8.10;4.60;;;10.20;81.70;;;;;;5020809;28;20083;-80
2023/03/18 08:34:09;;;;;;;9.25;5.43;;;10.20;81.60;;;;;;5023170;28;20091;-81
2023/03/18 08:36:35;;;;;;;7.38;4.88;;;10.30;81.40;;;;;;5024417;28;20689;-79
2023/03/18 08:39:01;;;;;;;7.28;5.00;;;10.40;81.40;;;;;;5024923;28;20044;-80
2023/03/18 08:41:27;;;;;;;39.65;7.68;;;10.60;81.50;;;;;;5000822;28;20049;-80
2023/03/18 08:43:54;;;;;;;66.47;9.85;;;10.70;81.40;;;;;;4998105;28;20584;-80
2023/03/18 08:46:19;;;;;;;8.68;5.28;;;10.90;81.30;;;;;;4985634;28;20088;-80
2023/03/18 08:48:45;;;;;;;11.10;5.40;;;11.00;81.10;;;;;;5023438;28;20045;-80
2023/03/18 08:51:11;;;;;;;14.48;5.35;;;11.10;80.80;;;;;;5004695;28;20432;-78
2023/03/18 08:53:36;;;;;;;8.20;4.68;;;11.20;80.70;;;;;;5017758;28;20107;-80
2023/03/18 08:56:04;;;;;;;8.80;4.45;;;11.30;80.50;;;;;;5024147;28;20098;-80
2023/03/18 08:58:30;;;;;;;10.70;4.57;;;11.40;80.50;;;;;;5022871;28;20037;-80
2023/03/18 09:00:55;;;;;;;7.55;4.30;;;11.60;80.30;;;;;;5034414;28;20043;-79
2023/03/18 09:03:21;;;;;;;8.60;4.63;;;11.70;80.10;;;;;;5029448;28;20522;-80
2023/03/18 09:05:48;;;;;;;8.82;4.40;;;11.90;80.00;;;;;;5015516;28;20601;-81
2023/03/18 09:08:14;;;;;;;6.90;3.75;;;12.10;79.80;;;;;;5017128;28;20046;-81
2023/03/18 09:14:02;;;;;;;8.68;3.80;;;12.60;79.20;;;;;;5034296;28;20104;-79
2023/03/18 09:16:27;;;;;;;8.43;3.65;;;12.90;78.90;;;;;;5039220;28;20045;-80
2023/03/18 09:18:53;;;;;;;6.82;3.88;;;13.10;78.30;;;;;;5015047;28;20060;-81
2023/03/18 09:21:19;;;;;;;7.72;3.65;;;13.30;77.90;;;;;;5037596;28;20128;-80
2023/03/18 09:23:44;;;;;;;3.80;3.20;;;13.30;77.60;;;;;;5023453;28;20041;-80
2023/03/18 09:26:10;;;;;;;7.43;3.67;;;13.50;77.20;;;;;;5042088;28;20037;-81
2023/03/18 09:28:36;;;;;;;4.57;3.30;;;13.60;76.90;;;;;;5027349;28;20060;-79
2023/03/18 09:31:02;;;;;;;4.78;3.67;;;13.70;76.70;;;;;;5022606;28;20040;-80
2023/03/18 09:33:28;;;;;;;5.28;3.17;;;13.80;76.70;;;;;;5041249;28;20038;-77
2023/03/18 09:35:54;;;;;;;4.80;3.42;;;14.00;76.50;;;;;;5025292;28;20063;-81
2023/03/18 09:38:19;;;;;;;7.72;3.35;;;14.20;76.30;;;;;;5030675;28;20045;-80
2023/03/18 09:41:00;;;;;;;6.43;3.22;;;14.40;75.90;;;;;;5042006;28;20049;-79
2023/03/18 09:43:34;;;;;;;8.23;3.13;;;14.70;75.50;;;;;;5038818;28;20069;-80
2023/03/18 09:46:12;;;;;;;3.72;2.65;;;14.90;75.30;;;;;;5040813;28;20041;-81
2023/03/18 09:48:59;;;;;;;4.95;3.10;;;15.20;74.70;;;;;;5025717;28;20504;-80
2023/03/18 09:51:40;;;;;;;4.00;2.70;;;15.40;73.80;;;;;;5010998;28;20665;-80
2023/03/18 09:54:28;;;;;;;8.30;2.63;;;15.70;73.60;;;;;;5022458;28;20041;-79
2023/03/18 09:56:54;;;;;;;3.30;2.75;;;16.00;72.90;;;;;;5003220;28;20107;-81
2023/03/18 09:59:39;;;;;;;4.25;2.63;;;16.30;73.10;;;;;;5024230;28;20034;-78
2023/03/18 10:02:31;;;;;;;4.28;2.55;;;16.50;72.00;;;;;;5015177;28;20522;-81
2023/03/18 10:04:59;;;;;;;4.05;2.30;;;16.80;71.00;;;;;;5016524;28;20848;-79
2023/03/18 10:07:29;;;;;;;6.95;2.38;;;17.10;71.40;;;;;;5003947;28;20079;-81
2023/03/18 10:10:06;;;;;;;3.47;2.22;;;17.30;70.40;;;;;;5008470;28;20063;-79
2023/03/18 10:12:37;;;;;;;5.18;3.13;;;17.50;69.50;;;;;;5020411;28;20088;-80
2023/03/18 10:15:15;;;;;;;3.08;2.20;;;17.70;69.40;;;;;;5008160;28;20117;-80
2023/03/18 10:17:45;;;;;;;2.88;1.90;;;17.90;68.10;;;;;;5033168;28;20068;-81
2023/03/18 10:20:16;;;;;;;2.95;2.00;;;18.00;68.30;;;;;;5017121;28;20040;-80
2023/03/18 10:23:08;;;;;;;5.18;2.00;;;18.10;68.50;;;;;;5004515;28;20045;-79
2023/03/18 10:25:39;;;;;;;3.97;1.70;;;18.20;66.80;;;;;;5013207;28;20041;-79
2023/03/18 10:28:24;;;;;;;5.05;2.05;;;18.40;67.40;;;;;;5043285;28;20091;-77
2023/03/18 10:31:07;;;;;;;2.58;2.00;;;18.60;66.90;;;;;;5022772;28;20034;-78
2023/03/18 10:34:07;;;;;;;4.30;2.50;;;18.70;65.60;;;;;;5014179;28;20044;-81
2023/03/18 10:37:04;;;;;;;3.15;2.00;;;18.80;64.70;;;;;;5027412;28;20434;-79
2023/03/18 10:39:30;;;;;;;3.97;1.90;;;19.00;64.60;;;;;;4956790;28;20219;-81
2023/03/18 10:41:56;;;;;;;5.05;2.20;;;19.10;65.20;;;;;;5025067;28;20033;-82
2023/03/18 10:44:33;;;;;;;5.13;1.88;;;19.30;65.00;;;;;;5024560;28;20057;-80
2023/03/18 10:47:12;;;;;;;3.17;1.73;;;19.60;63.60;;;;;;5019249;28;20156;-81
2023/03/18 10:49:43;;;;;;;2.70;1.90;;;19.80;62.30;;;;;;5020153;28;20123;-81
2023/03/18 10:52:11;;;;;;;7.85;1.92;;;19.90;62.40;;;;;;5023018;28;20147;-79
2023/03/18 10:54:40;;;;;;;5.10;1.73;;;20.10;62.00;;;;;;5030860;28;20057;-77
2023/03/18 10:57:11;;;;;;;4.47;1.85;;;20.30;61.10;;;;;;5047281;28;20182;-81
2023/03/18 10:59:37;;;;;;;5.15;1.55;;;20.30;60.40;;;;;;5021455;28;20037;-80
2023/03/18 11:02:05;;;;;;;4.78;1.35;;;20.50;60.80;;;;;;5035638;28;20033;-81
2023/03/18 11:04:36;;;;;;;3.70;1.50;;;20.70;59.50;;;;;;5016106;28;20044;-79
2023/03/18 11:07:03;;;;;;;1.50;1.17;;;20.80;59.10;;;;;;5012784;28;20042;-77
2023/03/18 11:09:31;;;;;;;2.45;1.10;;;21.00;58.70;;;;;;5019163;28;20046;-82
2023/03/18 11:12:01;;;;;;;2.42;1.10;;;21.10;57.90;;;;;;5001491;28;20037;-78
2023/03/18 11:14:28;;;;;;;3.22;1.40;;;21.30;58.00;;;;;;5013887;28;20123;-79
2023/03/18 11:17:01;;;;;;;1.90;1.10;;;21.50;57.60;;;;;;5027366;28;20044;-79
2023/03/18 11:19:38;;;;;;;3.65;1.45;;;21.70;56.70;;;;;;5028876;28;20041;-79
2023/03/18 11:22:10;;;;;;;2.42;1.17;;;21.80;55.40;;;;;;5015477;28;20045;-79
2023/03/18 11:24:42;;;;;;;3.90;1.30;;;21.80;55.70;;;;;;5031386;28;20038;-77
2023/03/18 11:27:21;;;;;;;2.28;1.10;;;21.90;55.60;;;;;;5031440;28;20040;-79
2023/03/18 11:29:55;;;;;;;4.40;1.48;;;22.00;55.10;;;;;;5021558;28;20033;-78
2023/03/18 11:32:29;;;;;;;4.55;1.70;;;22.10;55.10;;;;;;4995568;28;20029;-79
2023/03/18 11:35:02;;;;;;;4.68;1.23;;;22.20;54.70;;;;;;5009690;28;20176;-78
2023/03/18 11:37:32;;;;;;;3.10;1.00;;;22.40;55.10;;;;;;5013869;28;20111;-79
2023/03/18 11:40:13;;;;;;;1.95;1.50;;;22.60;54.50;;;;;;4984221;28;20026;-80
2023/03/18 11:42:39;;;;;;;3.28;1.42;;;22.80;53.90;;;;;;5027158;28;20040;-79
2023/03/18 11:45:25;;;;;;;3.00;1.10;;;22.90;54.00;;;;;;5014761;28;20034;-79
2023/03/18 11:47:52;;;;;;;4.47;1.10;;;23.10;51.90;;;;;;5004907;28;20049;-78
2023/03/18 11:50:19;;;;;;;2.85;1.13;;;23.10;53.30;;;;;;5023481;28;20322;-78
2023/03/18 11:53:07;;;;;;;2.17;1.30;;;23.20;53.00;;;;;;4988658;28;20033;-79
2023/03/18 11:55:56;;;;;;;2.58;1.42;;;23.30;52.90;;;;;;4995974;28;20038;-80
2023/03/18 11:58:40;;;;;;;4.13;1.48;;;23.40;52.00;;;;;;5002746;28;20041;-80
2023/03/18 12:01:22;;;;;;;3.72;1.10;;;23.50;50.90;;;;;;5008678;28;20037;-81
2023/03/18 12:03:59;;;;;;;1.63;1.00;;;23.60;51.80;;;;;;5008316;28;20477;-78
2023/03/18 12:06:27;;;;;;;2.55;1.15;;;23.80;51.80;;;;;;5015903;28;20084;-79
2023/03/18 12:09:05;;;;;;;4.35;1.60;;;23.90;52.00;;;;;;4981637;28;20197;-78
2023/03/18 12:11:59;;;;;;;4.18;1.13;;;24.10;51.00;;;;;;5014999;28;20053;-80
2023/03/18 12:15:03;;;;;;;4.75;1.20;;;24.20;50.20;;;;;;5002238;28;20041;-77
2023/03/18 12:17:41;;;;;;;3.40;1.00;;;24.40;49.70;;;;;;5021290;28;20124;-77
2023/03/18 12:20:48;;;;;;;3.20;1.20;;;24.60;49.70;;;;;;4997865;28;20096;-79
2023/03/18 12:23:33;;;;;;;1.52;1.05;;;24.70;49.00;;;;;;5012615;28;20527;-80
2023/03/18 12:26:05;;;;;;;2.60;1.00;;;24.80;49.80;;;;;;5017693;28;20048;-80
2023/03/18 12:28:48;;;;;;;4.60;1.00;;;25.00;49.70;;;;;;4998518;28;20041;-78
2023/03/18 12:31:35;;;;;;;1.77;1.20;;;25.10;47.70;;;;;;4994326;28;20037;-78
2023/03/18 12:34:01;;;;;;;3.97;0.90;;;25.10;47.90;;;;;;5010525;28;20101;-78
2023/03/18 12:36:52;;;;;;;1.63;0.80;;;25.20;49.20;;;;;;4993560;28;20423;-78
2023/03/18 12:39:55;;;;;;;3.83;0.80;;;25.40;48.40;;;;;;5014297;28;20654;-79
2023/03/18 12:42:27;;;;;;;2.15;1.00;;;25.60;49.00;;;;;;4979673;28;20124;-79
2023/03/18 12:45:09;;;;;;;2.92;1.13;;;25.70;48.50;;;;;;5012007;28;20032;-79
2023/03/18 12:47:45;;;;;;;3.15;1.20;;;25.80;48.20;;;;;;5007284;28;20137;-80
2023/03/18 12:50:18;;;;;;;3.97;1.30;;;25.90;48.40;;;;;;4999916;28;20663;-78
2023/03/18 12:52:45;;;;;;;2.75;1.10;;;26.10;48.20;;;;;;4995069;28;20175;-80
2023/03/18 12:55:13;;;;;;;2.47;1.10;;;26.20;47.90;;;;;;5011289;28;20038;-79
2023/03/18 12:57:40;;;;;;;3.13;1.20;;;26.30;47.70;;;;;;5001696;28;20026;-78
2023/03/18 13:00:31;;;;;;;3.50;0.90;;;26.40;47.30;;;;;;5010428;28;20034;-78
2023/03/18 13:03:39;;;;;;;1.60;1.10;;;26.50;45.50;;;;;;5012744;28;20037;-79
2023/03/18 13:06:16;;;;;;;2.92;1.10;;;26.50;45.40;;;;;;5010802;28;20033;-80
2023/03/18 13:08:47;;;;;;;4.53;1.20;;;26.60;46.00;;;;;;5012880;28;20124;-78